createdAt,value
2018-06-30T00:02:17.270Z,14.80
2018-06-30T00:04:53.331Z,11.40
2018-06-30T00:07:28.032Z,10.43
2018-06-30T00:10:03.006Z,14.30
2018-06-30T00:12:37.948Z,13.70
2018-06-30T00:15:13.467Z,11.63
2018-06-30T00:17:48.544Z,8.87
2018-06-30T00:20:23.502Z,11.50
2018-06-30T00:22:53.969Z,11.10
2018-06-30T00:25:29.171Z,16.20
2018-06-30T00:28:04.617Z,11.20
2018-06-30T00:30:39.558Z,10.57
2018-06-30T00:33:14.547Z,12.13
2018-06-30T00:35:49.608Z,14.23
2018-06-30T00:38:24.795Z,10.37
2018-06-30T00:41:00.152Z,10.40
2018-06-30T00:43:35.237Z,13.17
2018-06-30T00:46:10.303Z,11.43
2018-06-30T00:48:45.819Z,13.93
2018-06-30T00:51:21.686Z,14.27
2018-06-30T00:53:57.001Z,10.13
2018-06-30T00:56:33.004Z,12.00
2018-06-30T00:59:08.138Z,16.43
2018-06-30T01:01:43.440Z,12.40
2018-06-30T01:04:18.454Z,13.27
2018-06-30T01:06:53.637Z,17.10
2018-06-30T01:09:28.963Z,12.00
2018-06-30T01:12:03.883Z,13.20
2018-06-30T01:14:39.027Z,10.93
2018-06-30T01:17:14.411Z,19.20
2018-06-30T01:19:49.516Z,16.53
2018-06-30T01:22:24.519Z,13.17
2018-06-30T01:24:59.502Z,11.40
2018-06-30T01:27:35.085Z,11.00
2018-06-30T01:30:11.534Z,16.33
2018-06-30T01:32:46.519Z,12.33
2018-06-30T01:35:22.448Z,17.60
2018-06-30T01:37:57.475Z,20.33
2018-06-30T01:40:32.934Z,14.47
2018-06-30T01:43:08.527Z,16.30
2018-06-30T01:45:43.368Z,18.30
2018-06-30T01:48:18.271Z,14.50
2018-06-30T01:50:53.001Z,14.60
2018-06-30T01:53:28.096Z,14.07
2018-06-30T01:56:02.916Z,17.90
2018-06-30T01:58:37.714Z,16.63
2018-06-30T02:01:12.768Z,16.53
2018-06-30T02:03:47.981Z,17.43
2018-06-30T02:06:23.539Z,16.57
2018-06-30T02:08:58.667Z,16.70
2018-06-30T02:11:33.719Z,13.77
2018-06-30T02:14:09.859Z,15.33
2018-06-30T02:16:44.822Z,16.37
2018-06-30T02:19:19.960Z,15.50
2018-06-30T02:21:55.146Z,17.43
2018-06-30T02:24:30.446Z,15.67
2018-06-30T02:27:05.414Z,17.37
2018-06-30T02:29:40.511Z,18.40
2018-06-30T02:32:15.292Z,16.90
2018-06-30T02:34:50.257Z,16.53
2018-06-30T02:37:26.268Z,18.20
2018-06-30T02:40:01.682Z,18.00
2018-06-30T02:42:37.578Z,19.63
2018-06-30T02:45:12.514Z,22.10
2018-06-30T02:47:47.572Z,16.67
2018-06-30T02:50:22.711Z,18.97
2018-06-30T02:52:57.633Z,17.60
2018-06-30T02:55:32.459Z,19.97
2018-06-30T02:58:08.030Z,15.47
2018-06-30T03:00:43.458Z,19.77
2018-06-30T03:03:18.644Z,18.03
2018-06-30T03:05:53.831Z,21.03
2018-06-30T03:08:28.857Z,22.43
2018-06-30T03:11:03.808Z,23.43
2018-06-30T03:13:38.721Z,19.17
2018-06-30T03:16:16.671Z,19.13
2018-06-30T03:18:51.458Z,22.73
2018-06-30T03:21:26.371Z,23.10
2018-06-30T03:24:02.864Z,18.23
2018-06-30T03:26:38.057Z,19.50
2018-06-30T03:29:13.109Z,18.90
2018-06-30T03:31:48.221Z,20.73
2018-06-30T03:34:23.151Z,17.90
2018-06-30T03:36:58.218Z,20.10
2018-06-30T03:39:33.334Z,21.93
2018-06-30T03:42:08.412Z,24.53
2018-06-30T03:44:43.920Z,24.70
2018-06-30T03:47:19.211Z,19.73
2018-06-30T03:49:54.059Z,21.93
2018-06-30T03:52:29.106Z,22.57
2018-06-30T03:55:04.166Z,22.70
2018-06-30T03:57:39.523Z,24.70
2018-06-30T04:00:14.390Z,23.77
2018-06-30T04:02:49.568Z,21.20
2018-06-30T04:05:24.354Z,20.80
2018-06-30T04:07:59.490Z,17.83
2018-06-30T04:10:35.257Z,21.73
2018-06-30T04:13:10.219Z,20.20
2018-06-30T04:15:45.185Z,21.50
2018-06-30T04:18:21.545Z,29.60
2018-06-30T04:20:56.683Z,21.17
2018-06-30T04:23:31.684Z,23.73
2018-06-30T04:26:06.719Z,21.50
2018-06-30T04:28:42.518Z,23.80
2018-06-30T04:31:17.473Z,23.23
2018-06-30T04:33:52.332Z,20.53
2018-06-30T04:36:27.195Z,19.67
2018-06-30T04:39:01.901Z,20.80
2018-06-30T04:41:36.793Z,21.60
2018-06-30T04:44:11.800Z,23.17
2018-06-30T04:46:46.770Z,27.67
2018-06-30T04:49:21.861Z,25.67
2018-06-30T04:51:57.198Z,23.07
2018-06-30T04:54:32.839Z,21.07
2018-06-30T04:57:08.071Z,28.57
2018-06-30T04:59:43.064Z,22.90
2018-06-30T05:02:18.063Z,29.03
2018-06-30T05:04:53.479Z,26.43
2018-06-30T05:07:28.437Z,24.50
2018-06-30T05:10:03.547Z,30.40
2018-06-30T05:12:40.265Z,26.30
2018-06-30T05:15:15.355Z,22.33
2018-06-30T05:17:50.861Z,26.57
2018-06-30T05:20:25.761Z,23.33
2018-06-30T05:23:00.787Z,29.97
2018-06-30T05:25:35.791Z,24.63
2018-06-30T05:28:12.517Z,28.80
2018-06-30T05:30:47.302Z,21.83
2018-06-30T05:33:22.406Z,26.40
2018-06-30T05:35:57.340Z,24.73
2018-06-30T05:38:32.389Z,24.70
2018-06-30T05:41:07.456Z,22.70
2018-06-30T05:43:42.440Z,26.37
2018-06-30T05:46:17.429Z,21.27
2018-06-30T05:48:52.520Z,21.77
2018-06-30T05:51:27.761Z,21.20
2018-06-30T05:54:02.611Z,25.43
2018-06-30T05:56:37.629Z,28.27
2018-06-30T05:59:12.457Z,24.57
2018-06-30T06:01:47.899Z,23.93
2018-06-30T06:04:22.915Z,21.40
2018-06-30T06:06:58.048Z,18.60
2018-06-30T06:09:33.147Z,22.80
2018-06-30T06:12:08.183Z,17.37
2018-06-30T06:14:43.105Z,18.33
2018-06-30T06:17:18.193Z,19.17
2018-06-30T06:19:53.499Z,18.63
2018-06-30T06:22:28.619Z,21.60
2018-06-30T06:25:03.564Z,18.30
2018-06-30T06:27:38.826Z,15.30
2018-06-30T06:30:14.286Z,20.27
2018-06-30T06:32:49.751Z,19.57
2018-06-30T06:35:24.696Z,19.37
2018-06-30T06:37:59.558Z,21.90
2018-06-30T06:40:35.056Z,21.90
2018-06-30T06:43:10.353Z,18.20
2018-06-30T06:45:45.230Z,21.17
2018-06-30T06:48:20.898Z,17.83
2018-06-30T06:50:56.225Z,21.37
2018-06-30T06:53:31.343Z,23.13
2018-06-30T06:56:06.590Z,17.00
2018-06-30T06:58:41.859Z,13.47
2018-06-30T07:01:16.926Z,16.33
2018-06-30T07:03:51.723Z,14.07
2018-06-30T07:06:26.834Z,14.87
2018-06-30T07:09:02.497Z,12.83
2018-06-30T07:11:38.203Z,11.30
2018-06-30T07:14:12.999Z,14.87
2018-06-30T07:16:48.258Z,12.97
2018-06-30T07:19:23.655Z,14.13
2018-06-30T07:21:58.890Z,13.80
2018-06-30T07:24:34.487Z,11.10
2018-06-30T07:27:10.215Z,10.17
2018-06-30T07:29:45.371Z,12.20
2018-06-30T07:32:20.201Z,10.30
2018-06-30T07:34:55.509Z,10.20
2018-06-30T07:37:30.402Z,9.30
2018-06-30T07:40:06.321Z,11.40
2018-06-30T07:42:41.579Z,9.77
2018-06-30T07:45:16.619Z,9.10
2018-06-30T07:47:51.724Z,9.13
2018-06-30T07:50:26.658Z,8.80
2018-06-30T07:53:01.863Z,9.03
2018-06-30T07:55:36.967Z,10.27
2018-06-30T07:58:11.926Z,10.77
2018-06-30T08:00:46.901Z,14.70
2018-06-30T08:03:21.851Z,12.93
2018-06-30T08:05:56.618Z,13.20
2018-06-30T08:08:32.247Z,13.77
2018-06-30T08:11:07.161Z,11.50
2018-06-30T08:13:42.076Z,11.07
2018-06-30T08:16:16.905Z,12.60
2018-06-30T08:18:51.960Z,10.57
2018-06-30T08:21:27.507Z,12.40
2018-06-30T08:24:02.932Z,10.80
2018-06-30T08:26:38.343Z,9.87
2018-06-30T08:29:13.492Z,15.97
2018-06-30T08:31:48.305Z,14.60
2018-06-30T08:34:23.272Z,11.03
2018-06-30T08:36:58.837Z,11.43
2018-06-30T08:39:34.084Z,9.07
2018-06-30T08:42:09.277Z,12.47
2018-06-30T08:44:44.530Z,12.37
2018-06-30T08:47:19.667Z,10.93
2018-06-30T08:49:54.741Z,11.30
2018-06-30T08:52:29.948Z,9.67
2018-06-30T08:55:04.871Z,9.80
2018-06-30T08:57:40.208Z,10.17
2018-06-30T09:00:15.168Z,10.57
2018-06-30T09:02:49.970Z,10.33
2018-06-30T09:05:24.983Z,9.67
2018-06-30T09:08:00.089Z,10.83
2018-06-30T09:10:35.511Z,13.57
2018-06-30T09:13:11.121Z,15.83
2018-06-30T09:15:46.308Z,13.60
2018-06-30T09:18:21.304Z,13.60
2018-06-30T09:20:56.911Z,13.10
2018-06-30T09:23:32.223Z,11.67
2018-06-30T09:26:08.438Z,12.57
2018-06-30T09:28:43.545Z,13.20
2018-06-30T09:31:18.679Z,15.10
2018-06-30T09:33:53.951Z,17.70
2018-06-30T09:36:29.940Z,14.10
2018-06-30T09:39:07.886Z,10.50
2018-06-30T09:41:42.557Z,9.73
2018-06-30T09:44:17.063Z,11.77
2018-06-30T09:46:52.373Z,10.70
2018-06-30T09:49:28.206Z,12.93
2018-06-30T09:52:03.151Z,9.03
2018-06-30T09:54:38.318Z,10.13
2018-06-30T09:57:13.167Z,11.33
2018-06-30T09:59:47.880Z,8.77
2018-06-30T10:02:24.994Z,11.13
2018-06-30T10:04:59.981Z,11.10
2018-06-30T10:07:34.360Z,8.87
2018-06-30T10:10:09.146Z,9.83
2018-06-30T10:12:44.069Z,9.67
2018-06-30T10:15:19.119Z,8.50
2018-06-30T10:17:54.600Z,8.67
2018-06-30T10:20:29.470Z,8.17
2018-06-30T10:23:04.451Z,7.60
2018-06-30T10:25:39.281Z,9.33
2018-06-30T10:28:14.286Z,12.73
2018-06-30T10:30:49.520Z,10.17
2018-06-30T10:33:24.517Z,10.67
2018-06-30T10:35:59.884Z,8.63
2018-06-30T10:38:34.831Z,9.67
2018-06-30T10:41:09.858Z,10.50
2018-06-30T10:43:44.815Z,10.80
2018-06-30T10:46:19.911Z,7.43
2018-06-30T10:48:54.717Z,7.87
2018-06-30T10:51:29.869Z,14.47
2018-06-30T10:54:05.697Z,11.20
2018-06-30T10:56:40.574Z,9.20
2018-06-30T10:59:15.922Z,8.00
2018-06-30T11:01:50.899Z,9.30
2018-06-30T11:04:25.754Z,7.60
2018-06-30T11:07:01.017Z,12.43
2018-06-30T11:09:35.730Z,9.30
2018-06-30T11:12:10.888Z,8.20
2018-06-30T11:14:45.783Z,7.07
2018-06-30T11:17:21.151Z,9.60
2018-06-30T11:19:56.412Z,10.17
2018-06-30T11:22:31.622Z,7.50
2018-06-30T11:25:07.193Z,7.50
2018-06-30T11:27:42.223Z,7.93
2018-06-30T11:30:17.380Z,11.93
2018-06-30T11:32:52.478Z,6.70
2018-06-30T11:35:27.613Z,6.30
2018-06-30T11:38:02.825Z,6.73
2018-06-30T11:40:37.855Z,7.07
2018-06-30T11:43:12.979Z,6.53
2018-06-30T11:45:48.188Z,7.10
2018-06-30T11:48:23.060Z,9.67
2018-06-30T11:50:59.075Z,6.70
2018-06-30T11:53:34.242Z,12.27
2018-06-30T11:56:09.230Z,7.13
2018-06-30T11:58:44.262Z,9.90
2018-06-30T12:01:19.632Z,8.20
2018-06-30T12:03:54.436Z,6.67
2018-06-30T12:06:29.348Z,8.17
2018-06-30T12:09:06.468Z,7.47
2018-06-30T12:11:41.874Z,6.33
2018-06-30T12:14:17.042Z,6.03
2018-06-30T12:16:51.802Z,7.80
2018-06-30T12:19:27.539Z,6.53
2018-06-30T12:22:02.962Z,7.53
2018-06-30T12:24:38.013Z,5.97
2018-06-30T12:27:13.236Z,6.13
2018-06-30T12:29:48.146Z,8.37
2018-06-30T12:32:22.992Z,9.40
2018-06-30T12:34:58.744Z,8.40
2018-06-30T12:37:33.781Z,5.33
2018-06-30T12:40:08.897Z,6.23
2018-06-30T12:42:44.406Z,8.30
2018-06-30T12:45:19.810Z,6.00
2018-06-30T12:47:55.584Z,9.00
2018-06-30T12:50:30.296Z,4.47
2018-06-30T12:53:05.857Z,6.43
2018-06-30T12:55:40.959Z,6.60
2018-06-30T12:58:16.102Z,7.90
2018-06-30T13:00:52.137Z,4.80
2018-06-30T13:03:27.239Z,6.53
2018-06-30T13:06:08.504Z,6.63
2018-06-30T13:08:43.324Z,5.57
2018-06-30T13:11:18.667Z,3.83
2018-06-30T13:13:53.960Z,6.73
2018-06-30T13:16:28.914Z,4.40
2018-06-30T13:19:03.884Z,5.63
2018-06-30T13:21:39.088Z,3.83
2018-06-30T13:24:13.756Z,5.60
2018-06-30T13:26:48.609Z,3.23
2018-06-30T13:29:23.992Z,4.13
2018-06-30T13:31:59.054Z,3.60
2018-06-30T13:34:34.899Z,4.13
2018-06-30T13:37:10.365Z,4.40
2018-06-30T13:39:45.344Z,5.83
2018-06-30T13:42:20.483Z,4.13
2018-06-30T13:44:55.432Z,4.93
2018-06-30T13:47:30.684Z,7.23
2018-06-30T13:50:06.116Z,4.83
2018-06-30T13:52:41.776Z,7.43
2018-06-30T13:55:17.722Z,3.80
2018-06-30T13:57:52.656Z,4.57
2018-06-30T14:00:28.599Z,9.30
2018-06-30T14:03:03.503Z,5.33
2018-06-30T14:05:39.136Z,5.60
2018-06-30T14:08:14.983Z,7.65
2018-06-30T14:10:50.695Z,3.60
2018-06-30T14:13:26.269Z,3.37
2018-06-30T14:16:01.711Z,4.83
2018-06-30T14:18:37.443Z,5.20
2018-06-30T14:21:12.840Z,4.20
2018-06-30T14:23:48.014Z,4.10
2018-06-30T14:26:23.076Z,5.60
2018-06-30T14:28:59.458Z,4.90
2018-06-30T14:31:34.947Z,3.45
2018-06-30T14:34:10.875Z,2.83
2018-06-30T14:36:46.498Z,4.60
2018-06-30T14:39:22.247Z,4.30
2018-06-30T14:41:57.894Z,3.77
2018-06-30T14:44:32.929Z,4.60
2018-06-30T14:47:09.112Z,5.42
2018-06-30T14:49:44.694Z,3.15
2018-06-30T14:52:20.362Z,4.55
2018-06-30T14:54:56.004Z,4.60
2018-06-30T14:57:32.061Z,4.83
2018-06-30T15:00:08.876Z,3.15
2018-06-30T15:02:44.878Z,7.67
2018-06-30T15:05:20.769Z,7.12
2018-06-30T15:07:56.337Z,2.50
2018-06-30T15:10:32.365Z,4.75
2018-06-30T15:13:07.990Z,4.12
2018-06-30T15:15:42.976Z,4.85
2018-06-30T15:18:18.403Z,2.70
2018-06-30T15:20:54.039Z,3.45
2018-06-30T15:23:29.810Z,6.58
2018-06-30T15:26:06.471Z,4.72
2018-06-30T15:28:41.849Z,2.00
2018-06-30T15:31:17.253Z,2.65
2018-06-30T15:33:52.985Z,3.92
2018-06-30T15:36:28.723Z,2.42
2018-06-30T15:39:06.728Z,2.87
2018-06-30T15:41:42.376Z,2.62
2018-06-30T15:44:18.070Z,6.20
2018-06-30T15:46:53.638Z,5.42
2018-06-30T15:49:29.007Z,4.77
2018-06-30T15:52:05.232Z,3.92
2018-06-30T15:54:40.623Z,4.65
2018-06-30T15:57:16.177Z,2.95
2018-06-30T15:59:51.618Z,2.80
2018-06-30T16:02:27.212Z,5.72
2018-06-30T16:05:03.492Z,1.90
2018-06-30T16:07:39.093Z,4.33
2018-06-30T16:10:14.723Z,4.70
2018-06-30T16:12:50.179Z,2.22
2018-06-30T16:15:25.625Z,2.10
2018-06-30T16:18:01.358Z,6.00
2018-06-30T16:20:43.307Z,1.87
2018-06-30T16:23:18.998Z,8.43
2018-06-30T16:25:54.174Z,5.23
2018-06-30T16:28:29.709Z,6.28
2018-06-30T16:31:05.604Z,5.83
2018-06-30T16:33:41.284Z,3.00
2018-06-30T16:36:16.843Z,5.08
2018-06-30T16:38:52.561Z,4.78
2018-06-30T16:41:28.006Z,3.87
2018-06-30T16:44:03.527Z,2.35
2018-06-30T16:46:39.425Z,1.80
2018-06-30T16:49:14.814Z,4.00
2018-06-30T16:51:50.334Z,5.25
2018-06-30T16:54:26.017Z,3.25
2018-06-30T16:57:01.565Z,2.22
2018-06-30T16:59:36.495Z,1.67
2018-06-30T17:02:12.334Z,4.55
2018-06-30T17:04:49.051Z,2.20
2018-06-30T17:07:24.210Z,4.50
2018-06-30T17:10:01.181Z,5.97
2018-06-30T17:12:37.459Z,1.60
2018-06-30T17:15:13.267Z,1.85
2018-06-30T17:17:48.382Z,1.77
2018-06-30T17:20:23.301Z,1.70
2018-06-30T17:22:58.878Z,3.85
2018-06-30T17:25:34.485Z,2.20
2018-06-30T17:28:12.498Z,1.30
2018-06-30T17:30:47.538Z,3.73
2018-06-30T17:33:22.643Z,3.53
2018-06-30T17:35:57.686Z,2.97
2018-06-30T17:38:33.065Z,2.40
2018-06-30T17:41:07.958Z,2.50
2018-06-30T17:43:43.035Z,4.53
2018-06-30T17:46:18.116Z,3.00
2018-06-30T17:48:53.107Z,6.60
2018-06-30T17:51:28.155Z,4.00
2018-06-30T17:54:03.623Z,5.13
2018-06-30T17:56:38.628Z,2.63
2018-06-30T17:59:14.080Z,4.20
2018-06-30T18:01:49.821Z,8.37
2018-06-30T18:04:24.807Z,2.73
2018-06-30T18:07:00.057Z,1.37
2018-06-30T18:09:35.641Z,3.30
2018-06-30T18:12:11.567Z,2.70
2018-06-30T18:14:46.477Z,2.90
2018-06-30T18:17:22.545Z,1.70
2018-06-30T18:19:58.105Z,4.27
2018-06-30T18:22:33.035Z,2.77
2018-06-30T18:25:08.652Z,5.23
2018-06-30T18:27:43.087Z,5.90
2018-06-30T18:30:18.604Z,3.53
2018-06-30T18:32:55.100Z,4.83
2018-06-30T18:35:30.313Z,1.33
2018-06-30T18:38:05.992Z,2.33
2018-06-30T18:40:40.892Z,3.63
2018-06-30T18:43:16.567Z,7.13
2018-06-30T18:45:51.561Z,4.57
2018-06-30T18:48:26.985Z,2.40
2018-06-30T18:51:02.252Z,3.50
2018-06-30T18:53:38.235Z,1.73
2018-06-30T18:56:14.297Z,3.43
2018-06-30T18:58:49.861Z,4.27
2018-06-30T19:01:25.355Z,1.17
2018-06-30T19:04:02.010Z,1.70
2018-06-30T19:06:38.204Z,5.33
2018-06-30T19:09:13.464Z,3.27
2018-06-30T19:11:48.974Z,5.23
2018-06-30T19:14:24.666Z,2.30
2018-06-30T19:17:00.414Z,2.40
2018-06-30T19:19:36.583Z,1.53
2018-06-30T19:22:12.439Z,2.03
2018-06-30T19:24:47.783Z,2.37
2018-06-30T19:27:22.740Z,1.50
2018-06-30T19:29:59.365Z,2.43
2018-06-30T19:32:35.985Z,2.00
2018-06-30T19:35:11.291Z,4.60
2018-06-30T19:37:47.043Z,1.90
2018-06-30T19:40:22.771Z,2.40
2018-06-30T19:42:57.693Z,2.13
2018-06-30T19:45:32.695Z,2.90
2018-06-30T19:48:08.378Z,2.43
2018-06-30T19:50:43.320Z,7.00
2018-06-30T19:53:18.598Z,2.23
2018-06-30T19:55:53.982Z,2.40
2018-06-30T19:58:29.007Z,7.43
2018-06-30T20:01:04.964Z,2.90
2018-06-30T20:03:40.835Z,6.20
2018-06-30T20:06:15.868Z,2.60
2018-06-30T20:08:51.242Z,6.20
2018-06-30T20:11:26.345Z,2.00
2018-06-30T20:14:03.732Z,2.07
2018-06-30T20:16:39.286Z,2.50
2018-06-30T20:19:14.688Z,5.37
2018-06-30T20:21:50.001Z,2.80
2018-06-30T20:24:26.315Z,3.00
2018-06-30T20:27:01.536Z,2.60
2018-06-30T20:29:39.857Z,5.73
2018-06-30T20:32:16.461Z,3.87
2018-06-30T20:34:52.409Z,3.13
2018-06-30T20:37:28.401Z,4.40
2018-06-30T20:40:04.846Z,10.57
2018-06-30T20:42:41.383Z,8.23
2018-06-30T20:45:16.731Z,4.47
2018-06-30T20:47:52.608Z,4.03
2018-06-30T20:50:30.547Z,2.43
2018-06-30T20:53:11.039Z,4.50
2018-06-30T20:55:47.979Z,3.03
2018-06-30T20:58:22.899Z,3.57
2018-06-30T21:00:57.964Z,6.27
2018-06-30T21:03:33.197Z,3.60
2018-06-30T21:06:08.832Z,4.00
2018-06-30T21:08:43.894Z,3.33
2018-06-30T21:11:18.909Z,5.70
2018-06-30T21:13:54.160Z,5.77
2018-06-30T21:16:34.233Z,12.23
2018-06-30T21:19:09.417Z,3.93
2018-06-30T21:21:44.407Z,5.60
2018-06-30T21:24:19.594Z,8.60
2018-06-30T21:26:54.472Z,4.63
2018-06-30T21:29:29.646Z,5.17
2018-06-30T21:32:04.940Z,7.60
2018-06-30T21:34:40.214Z,4.50
2018-06-30T21:37:15.196Z,5.83
2018-06-30T21:39:50.148Z,3.70
2018-06-30T21:42:25.191Z,4.53
2018-06-30T21:45:00.158Z,3.63
2018-06-30T21:47:35.297Z,2.70
2018-06-30T21:50:10.279Z,2.83
2018-06-30T21:52:45.385Z,5.60
2018-06-30T21:55:20.470Z,5.30
2018-06-30T21:57:55.670Z,3.00
2018-06-30T22:00:53.878Z,5.07
2018-06-30T22:03:28.983Z,3.87
2018-06-30T22:06:04.032Z,3.90
2018-06-30T22:08:39.587Z,3.43
2018-06-30T22:11:14.699Z,2.00
2018-06-30T22:13:49.722Z,2.53
2018-06-30T22:16:24.870Z,2.50
2018-06-30T22:19:00.386Z,1.97
2018-06-30T22:21:35.401Z,2.70
2018-06-30T22:24:11.190Z,2.03
2018-06-30T22:26:46.423Z,1.93
2018-06-30T22:29:21.462Z,13.47
2018-06-30T22:31:56.642Z,4.57
2018-06-30T22:34:31.974Z,3.33
2018-06-30T22:37:06.997Z,2.10
2018-06-30T22:39:53.050Z,2.93
2018-06-30T22:42:28.209Z,2.20
2018-06-30T22:45:02.642Z,9.70
2018-06-30T22:47:37.721Z,3.20
2018-06-30T22:50:15.779Z,2.50
2018-06-30T22:52:51.019Z,3.13
2018-06-30T22:55:25.991Z,4.30
2018-06-30T22:58:01.192Z,2.17
2018-06-30T23:00:36.118Z,2.50
2018-06-30T23:03:12.400Z,2.00
2018-06-30T23:05:47.371Z,2.13
2018-06-30T23:08:22.379Z,3.73
2018-06-30T23:10:57.222Z,2.00
2018-06-30T23:13:31.991Z,1.80
2018-06-30T23:16:07.151Z,3.80
2018-06-30T23:18:42.360Z,3.50
2018-06-30T23:21:17.433Z,4.90
2018-06-30T23:23:52.441Z,2.83
2018-06-30T23:26:27.480Z,4.40
2018-06-30T23:29:02.823Z,3.40
2018-06-30T23:31:37.952Z,2.80
2018-06-30T23:34:13.050Z,3.63
2018-06-30T23:36:47.964Z,4.57
2018-06-30T23:39:24.138Z,3.67
2018-06-30T23:41:59.119Z,3.00
2018-06-30T23:44:34.293Z,4.00
2018-06-30T23:47:09.595Z,3.93
2018-06-30T23:49:44.722Z,3.33
2018-06-30T23:52:20.029Z,3.93
2018-06-30T23:54:54.975Z,4.03
2018-06-30T23:57:30.099Z,5.57
